NLSK1: Solomon River, Niles, KS

                                SHEF ID:       NLSK1     SOLOMON R AT NILES, KS
STATION TYPE:

PRECIP STAGE RIV-FLOW BAT-LOAD
in ft cfs volt
Ccp-Rev Ccp-Rev Ccp-Rev Ccp-Rev
(America/Chicago)
06/28 00:00 0.00 11.77 1460 11.85
06/28 01:00 0.00 11.78 1463 11.83
06/28 02:00 0.00 11.78 1463 11.81
06/28 03:00 0.00 11.78 1463 11.79
06/28 04:00 0.00 11.78 1463 11.78
06/28 05:00 0.00 11.77 1460 11.76
06/28 06:00 0.00 11.77 1460 11.74
06/28 07:00 0.00 11.75 1455 11.70
06/28 08:00 0.00 11.75 1455 11.72
06/28 09:00 0.00 11.73 1450 11.81
06/28 10:00 0.00 11.72 1447 12.12
06/28 11:00 0.00 11.69 1439 12.26
06/28 12:00 0.00 11.68 1436 12.34
06/28 13:00 0.00 11.67 1434 12.32
06/28 14:00 0.00 11.64 1426 12.31
06/28 15:00 0.00 11.63 1423 12.25
06/28 16:00 0.00 11.60 1415 12.21
06/28 17:00 0.00 11.55 1402 12.17
06/28 18:00 0.00 11.53 1397 12.09
06/28 19:00 0.00 11.50 1389 11.83
06/28 20:00 0.00 11.47 1381 11.77
06/28 21:00 0.00 11.43 1371 11.75
06/28 22:00 0.00 11.39 1360 11.60
06/28 23:00 0.00 11.35 1350 11.74
Data processed at Mon 29Jun2026 04:41 GMT

NOTICE: If you are parsing this page

Please convert to using our Data API. Starting early 2026 we will be migrating to: https://water.usace.army.mil with modern pages rendered in JavaScript. When this migration completes you will no longer be able to scrape this page! CWMSDataAPI (CDA)

Timeseries IDs (TSIDs)

TSIDs used from left to right in the data table
NLSK.Precip-Inc.Total.1Hour.1Hour.Ccp-Rev
NLSK.Stage.Inst.1Hour.0.Ccp-Rev
NLSK.Flow.Inst.1Hour.0.Ccp-Rev
NLSK.Volt-Battery Load.Inst.1Hour.0.Ccp-Rev

                            

All information presented herein is the property of the government of the United States of America and may be revised or deleted at any time without prior notice. Dissemination of this information without the expressed written consent of the Public Affairs Office, Tulsa District U.S. Army Corps of Engineers is strictly prohibited. These data are gathered electronically and, as presented, have NOT undergone any form of quality control. These data are NOT guaranteed to be valid or correct.